createdAt,value
2024-05-09T00:00:45.791Z,11.60
2024-05-09T00:03:14.100Z,13.52
2024-05-09T00:05:43.788Z,12.38
2024-05-09T00:08:12.604Z,12.90
2024-05-09T00:10:41.495Z,12.77
2024-05-09T00:13:11.097Z,11.18
2024-05-09T00:15:39.495Z,12.40
2024-05-09T00:18:08.673Z,11.45
2024-05-09T00:20:40.058Z,12.10
2024-05-09T00:23:15.769Z,11.52
2024-05-09T00:25:44.463Z,11.68
2024-05-09T00:28:13.564Z,12.85
2024-05-09T00:30:41.698Z,13.65
2024-05-09T00:33:10.832Z,13.85
2024-05-09T00:35:40.149Z,13.45
2024-05-09T00:38:08.477Z,12.48
2024-05-09T00:40:42.229Z,12.77
2024-05-09T00:43:13.132Z,13.23
2024-05-09T00:45:43.642Z,13.38
2024-05-09T00:48:16.506Z,13.27
2024-05-09T00:50:47.509Z,13.07
2024-05-09T00:53:17.414Z,13.53
2024-05-09T00:55:46.852Z,13.82
2024-05-09T00:58:19.341Z,12.97
2024-05-09T01:00:48.318Z,14.40
2024-05-09T01:03:16.476Z,13.83
2024-05-09T01:05:45.109Z,12.70
2024-05-09T01:08:13.519Z,13.97
2024-05-09T01:10:45.031Z,15.40
2024-05-09T01:13:14.250Z,14.85
2024-05-09T01:15:43.133Z,12.70
2024-05-09T01:18:12.656Z,14.33
2024-05-09T01:20:44.249Z,13.03
2024-05-09T01:23:15.637Z,12.03
2024-05-09T01:25:46.681Z,15.90
2024-05-09T01:28:16.540Z,13.37
2024-05-09T01:30:46.007Z,11.57
2024-05-09T01:33:14.239Z,14.00
2024-05-09T01:35:43.287Z,13.10
2024-05-09T01:38:13.916Z,13.80
2024-05-09T01:40:43.544Z,19.37
2024-05-09T01:43:12.278Z,15.60
2024-05-09T01:45:41.548Z,17.73
2024-05-09T01:48:10.998Z,15.13
2024-05-09T01:50:42.198Z,14.13
2024-05-09T01:53:15.023Z,16.30
2024-05-09T01:55:44.155Z,16.10
2024-05-09T01:58:13.161Z,15.80
2024-05-09T02:00:42.853Z,13.33
2024-05-09T02:03:16.076Z,14.97
2024-05-09T02:05:47.564Z,15.77
2024-05-09T02:08:21.719Z,15.57
2024-05-09T02:13:19.170Z,15.83
2024-05-09T02:15:47.142Z,14.73
2024-05-09T02:18:15.174Z,12.93
2024-05-09T02:20:43.980Z,13.80
2024-05-09T02:23:12.638Z,13.77
2024-05-09T02:25:41.889Z,18.57
2024-05-09T02:28:09.938Z,14.37
2024-05-09T02:30:41.092Z,18.43
2024-05-09T02:33:12.838Z,14.87
2024-05-09T02:35:44.118Z,16.83
2024-05-09T02:38:13.359Z,16.10
2024-05-09T02:40:41.643Z,16.97
2024-05-09T02:43:13.042Z,14.23
2024-05-09T02:45:41.884Z,15.37
2024-05-09T02:48:14.139Z,76.73
2024-05-09T02:50:44.549Z,12.93
2024-05-09T02:53:14.652Z,13.50
2024-05-09T02:55:43.337Z,14.87
2024-05-09T02:58:11.898Z,16.00
2024-05-09T03:00:42.201Z,15.33
2024-05-09T03:03:14.066Z,15.00
2024-05-09T03:05:44.621Z,14.37
2024-05-09T03:08:13.266Z,15.63
2024-05-09T03:10:41.680Z,14.47
2024-05-09T03:13:15.724Z,16.50
2024-05-09T03:15:45.268Z,16.83
2024-05-09T03:18:13.911Z,17.10
2024-05-09T03:20:44.435Z,16.47
2024-05-09T03:23:12.981Z,17.97
2024-05-09T03:25:41.081Z,16.97
2024-05-09T03:28:09.039Z,15.77
2024-05-09T03:30:41.807Z,16.90
2024-05-09T03:33:19.271Z,16.33
2024-05-09T03:35:49.516Z,19.63
2024-05-09T03:38:17.708Z,18.37
2024-05-09T03:40:49.012Z,18.23
2024-05-09T03:43:19.223Z,16.87
2024-05-09T03:45:50.577Z,17.27
2024-05-09T03:48:18.743Z,17.70
2024-05-09T03:50:47.261Z,19.33
2024-05-09T03:53:16.550Z,21.20
2024-05-09T03:55:48.641Z,16.52
2024-05-09T03:58:16.512Z,20.33
2024-05-09T04:00:44.669Z,19.43
2024-05-09T04:03:13.454Z,24.97
2024-05-09T04:05:43.108Z,17.23
2024-05-09T04:08:15.374Z,18.87
2024-05-09T04:10:44.128Z,17.57
2024-05-09T04:13:12.280Z,20.23
2024-05-09T04:15:40.287Z,21.53
2024-05-09T04:18:08.499Z,20.20
2024-05-09T04:20:39.723Z,18.13
2024-05-09T04:23:14.629Z,18.43
2024-05-09T04:25:45.459Z,18.48
2024-05-09T04:28:14.430Z,19.90
2024-05-09T04:30:43.439Z,26.37
2024-05-09T04:33:13.825Z,18.93
2024-05-09T04:35:43.833Z,20.87
2024-05-09T04:38:14.272Z,20.00
2024-05-09T04:40:43.520Z,19.27
2024-05-09T04:43:16.323Z,19.57
2024-05-09T04:45:44.532Z,19.67
2024-05-09T04:48:12.622Z,19.27
2024-05-09T04:50:40.983Z,22.63
2024-05-09T04:53:10.659Z,17.93
2024-05-09T04:55:40.628Z,27.87
2024-05-09T04:58:09.746Z,120.73
2024-05-09T05:00:40.499Z,303.97
2024-05-09T05:03:14.221Z,302.53
2024-05-09T05:05:45.589Z,315.80
2024-05-09T05:08:19.276Z,354.70
2024-05-09T05:10:49.032Z,313.70
2024-05-09T05:13:21.585Z,357.07
2024-05-09T05:15:58.378Z,297.77
2024-05-09T05:18:28.576Z,327.60
2024-05-09T05:20:57.375Z,363.37
2024-05-09T05:23:25.574Z,128.03
2024-05-09T05:25:55.674Z,394.13
2024-05-09T05:28:24.298Z,343.67
2024-05-09T05:30:52.382Z,20.70
2024-05-09T05:33:22.526Z,23.50
2024-05-09T05:35:51.340Z,23.10
2024-05-09T05:38:21.286Z,21.90
2024-05-09T05:40:50.777Z,26.27
2024-05-09T05:43:19.496Z,19.70
2024-05-09T05:45:47.713Z,25.03
2024-05-09T05:48:17.454Z,20.67
2024-05-09T05:50:46.089Z,22.97
2024-05-09T05:53:14.575Z,24.13
2024-05-09T05:55:42.958Z,250.83
2024-05-09T05:58:12.183Z,336.00
2024-05-09T06:00:42.131Z,379.73
2024-05-09T06:03:13.034Z,344.30
2024-05-09T06:05:46.031Z,378.83
2024-05-09T06:08:14.492Z,405.20
2024-05-09T06:10:42.906Z,373.23
2024-05-09T06:13:13.487Z,390.90
2024-05-09T06:15:42.171Z,249.47
2024-05-09T06:18:12.272Z,383.50
2024-05-09T06:20:43.354Z,381.47
2024-05-09T06:23:13.279Z,367.97
2024-05-09T06:25:42.760Z,403.07
2024-05-09T06:28:11.594Z,388.33
2024-05-09T06:30:42.330Z,389.23
2024-05-09T06:33:14.442Z,378.70
2024-05-09T06:35:46.783Z,385.53
2024-05-09T06:38:15.038Z,381.00
2024-05-09T06:40:44.175Z,376.93
2024-05-09T06:43:18.149Z,368.93
2024-05-09T06:45:49.057Z,369.20
2024-05-09T06:48:21.831Z,331.80
2024-05-09T06:50:50.852Z,371.13
2024-05-09T06:53:23.359Z,343.77
2024-05-09T06:55:51.775Z,322.37
2024-05-09T06:58:19.812Z,194.50
2024-05-09T07:00:47.732Z,352.33
2024-05-09T07:03:18.219Z,356.47
2024-05-09T07:05:49.158Z,370.57
2024-05-09T07:08:18.941Z,361.00
2024-05-09T07:10:47.525Z,340.77
2024-05-09T07:13:16.031Z,349.53
2024-05-09T07:15:44.070Z,365.57
2024-05-09T07:18:16.700Z,295.80
2024-05-09T07:20:46.910Z,360.77
2024-05-09T07:23:16.017Z,318.20
2024-05-09T07:25:44.211Z,371.07
2024-05-09T07:28:21.384Z,398.03
2024-05-09T07:30:49.254Z,252.57
2024-05-09T07:33:23.165Z,287.00
2024-05-09T07:35:52.961Z,314.03
2024-05-09T07:38:21.276Z,352.60
2024-05-09T07:40:49.650Z,349.23
2024-05-09T07:43:17.699Z,237.73
2024-05-09T07:45:52.545Z,364.95
2024-05-09T07:52:39.050Z,90.75
2024-05-09T07:53:48.301Z,19.63
2024-05-09T07:56:22.363Z,339.73
2024-05-09T07:58:56.019Z,336.63
2024-05-09T08:01:26.513Z,9.43
2024-05-09T08:03:55.732Z,11.45
2024-05-09T08:06:24.743Z,8.02
2024-05-09T08:08:52.775Z,8.75
2024-05-09T08:11:20.922Z,9.18
2024-05-09T08:13:48.929Z,11.40
2024-05-09T08:16:16.832Z,9.13
2024-05-09T08:18:44.876Z,7.70
2024-05-09T08:21:12.936Z,7.95
2024-05-09T08:23:40.903Z,10.23
2024-05-09T08:26:09.220Z,9.32
2024-05-09T08:28:37.055Z,8.45
2024-05-09T08:31:07.017Z,9.80
2024-05-09T08:33:35.596Z,9.57
2024-05-09T08:36:04.436Z,9.75
2024-05-09T08:38:32.400Z,7.80
2024-05-09T08:41:03.839Z,7.70
2024-05-09T08:43:32.057Z,8.70
2024-05-09T08:46:02.472Z,7.13
2024-05-09T08:48:34.635Z,13.43
2024-05-09T08:51:03.243Z,9.07
2024-05-09T08:53:31.328Z,7.70
2024-05-09T08:56:04.566Z,7.38
2024-05-09T08:58:34.935Z,7.93
2024-05-09T09:01:05.198Z,10.82
2024-05-09T09:03:36.848Z,7.45
2024-05-09T09:06:14.655Z,18.00
2024-05-09T09:08:44.429Z,17.08
2024-05-09T09:11:12.593Z,7.55
2024-05-09T09:13:40.592Z,48.28
2024-05-09T09:16:08.862Z,62.35
2024-05-09T09:19:59.437Z,12.40
2024-05-09T09:22:27.872Z,16.13
2024-05-09T09:24:55.901Z,111.03
2024-05-09T09:27:24.037Z,153.05
2024-05-09T09:29:52.014Z,168.52
2024-05-09T09:32:19.987Z,517.03
2024-05-09T09:34:48.568Z,409.97
2024-05-09T09:37:20.851Z,462.00
2024-05-09T09:39:49.487Z,425.80
2024-05-09T09:42:21.291Z,403.00
2024-05-09T09:44:58.224Z,389.53
2024-05-09T09:47:33.394Z,435.95
2024-05-09T09:50:07.070Z,373.77
2024-05-09T09:52:37.891Z,406.50
2024-05-09T09:55:06.946Z,401.70
2024-05-09T09:57:37.419Z,443.70
2024-05-09T10:00:11.634Z,419.47
2024-05-09T10:02:43.703Z,430.37
2024-05-09T10:05:12.028Z,414.50
2024-05-09T10:07:43.635Z,456.07
2024-05-09T10:10:16.146Z,453.73
2024-05-09T10:13:13.049Z,450.88
2024-05-09T10:15:52.628Z,383.80
2024-05-09T10:18:28.412Z,426.87
2024-05-09T10:20:59.663Z,563.67
2024-05-09T10:26:05.235Z,475.00
2024-05-09T10:31:15.025Z,547.30
2024-05-09T10:33:50.236Z,558.23
2024-05-09T10:36:27.149Z,502.70
2024-05-09T10:38:55.786Z,496.83
2024-05-09T10:41:24.183Z,510.47
2024-05-09T10:43:52.668Z,493.10
2024-05-09T10:46:20.764Z,496.93
2024-05-09T10:56:17.594Z,642.47
2024-05-09T10:58:45.724Z,611.90
2024-05-09T11:01:14.412Z,610.73
2024-05-09T11:03:47.122Z,615.43
2024-05-09T11:06:18.744Z,509.42
2024-05-09T11:08:47.663Z,510.37
2024-05-09T11:11:16.402Z,502.37
2024-05-09T11:13:44.559Z,446.17
2024-05-09T11:16:21.278Z,478.23
2024-05-09T11:18:59.183Z,474.27
2024-05-09T11:21:27.697Z,603.90
2024-05-09T11:23:56.962Z,446.93
2024-05-09T11:26:25.508Z,465.93
2024-05-09T11:28:53.802Z,457.30
2024-05-09T11:41:21.064Z,595.87
2024-05-09T11:43:49.018Z,550.90
2024-05-09T11:46:17.383Z,694.20
2024-05-09T11:48:45.660Z,558.40
2024-05-09T11:51:13.640Z,549.20
2024-05-09T12:25:50.023Z,644.77
2024-05-09T12:28:18.423Z,568.67
2024-05-09T12:30:46.470Z,533.80
2024-05-09T12:33:14.744Z,573.90
2024-05-09T12:35:45.374Z,578.90
2024-05-09T12:45:40.751Z,709.70
2024-05-09T12:48:12.534Z,590.00
2024-05-09T12:50:42.032Z,740.63
2024-05-09T12:53:10.466Z,783.10
2024-05-09T12:55:45.100Z,806.10
2024-05-09T12:58:22.512Z,726.60
2024-05-09T13:00:52.611Z,815.47
2024-05-09T13:03:21.425Z,820.42
2024-05-09T13:05:51.507Z,775.08
2024-05-09T13:08:20.692Z,828.97
2024-05-09T13:10:50.365Z,816.88
2024-05-09T13:13:18.971Z,742.28
2024-05-09T13:15:47.463Z,384.48
2024-05-09T13:18:15.502Z,801.60
2024-05-09T13:20:44.914Z,500.13
2024-05-09T13:23:12.762Z,928.58
2024-05-09T13:28:08.778Z,846.05
2024-05-09T13:30:40.717Z,621.58
2024-05-09T13:33:12.227Z,398.08
2024-05-09T13:35:47.706Z,550.83
2024-05-09T13:38:20.252Z,138.98
2024-05-09T13:40:49.387Z,364.85
2024-05-09T13:43:18.625Z,66.60
2024-05-09T13:45:47.687Z,534.38
2024-05-09T13:48:15.840Z,620.25
2024-05-09T13:50:43.866Z,879.85
2024-05-09T13:53:11.943Z,749.08
2024-05-09T13:55:40.474Z,810.50
2024-05-09T13:58:09.611Z,772.80
2024-05-09T14:00:46.659Z,820.15
2024-05-09T14:03:19.468Z,819.67
2024-05-09T14:05:51.158Z,684.33
2024-05-09T14:08:22.502Z,831.25
2024-05-09T14:10:52.423Z,708.10
2024-05-09T14:15:48.831Z,705.50
2024-05-09T14:28:13.326Z,767.30
2024-05-09T14:30:42.971Z,730.50
2024-05-09T14:40:42.406Z,777.75
2024-05-09T14:48:11.011Z,785.20
2024-05-09T14:58:13.015Z,810.80
2024-05-09T15:00:46.699Z,830.60
2024-05-09T15:03:20.249Z,865.27
2024-05-09T15:05:50.034Z,855.77
2024-05-09T15:08:19.696Z,828.07
2024-05-09T15:25:41.802Z,826.20
2024-05-09T15:40:39.523Z,829.50
2024-05-09T16:05:46.343Z,824.40
2024-05-09T16:13:16.067Z,838.80
2024-05-09T16:40:40.091Z,821.20
2024-05-09T16:45:41.892Z,389.30
2024-05-09T16:48:10.377Z,687.17
2024-05-09T16:50:39.149Z,344.08
2024-05-09T16:53:07.697Z,959.30
2024-05-09T16:55:36.361Z,923.95
2024-05-09T16:58:06.625Z,910.80
2024-05-09T17:03:14.964Z,906.25
2024-05-09T17:08:20.313Z,803.95
2024-05-09T17:10:49.520Z,800.80
2024-05-09T17:13:19.028Z,822.50
2024-05-09T17:15:48.122Z,844.22
2024-05-09T17:18:16.638Z,831.30
2024-05-09T17:20:44.695Z,808.40
2024-05-09T17:23:14.059Z,607.65
2024-05-09T17:25:42.770Z,850.17
2024-05-09T17:33:11.603Z,4.80
2024-05-09T17:35:41.082Z,704.05
2024-05-09T18:00:39.269Z,690.00
2024-05-09T18:03:14.017Z,697.23
2024-05-09T18:08:13.552Z,646.75
2024-05-09T18:35:43.334Z,638.60
2024-05-09T18:38:11.649Z,666.73
2024-05-09T20:23:11.626Z,304.30
2024-05-09T20:33:07.821Z,643.30
2024-05-09T21:00:41.382Z,498.60
2024-05-09T21:03:14.866Z,458.60
2024-05-09T21:05:44.306Z,426.23
2024-05-09T21:10:40.529Z,548.80
2024-05-09T21:15:36.702Z,513.15
2024-05-09T21:23:03.841Z,473.60
2024-05-09T21:25:32.447Z,496.10
2024-05-09T21:30:38.514Z,524.20
2024-05-09T21:33:12.699Z,503.63
2024-05-09T21:35:45.634Z,504.75
2024-05-09T21:43:12.056Z,516.13
2024-05-09T21:58:08.348Z,364.90
